Time;durP1;ratioP1;P1;durP2;ratioP2;P2;SDS_P1;SDS_P2;PMS_P1;PMS_P2;Temp;Humidity;BMP_temperature;BMP_pressure;BME280_temperature;BME280_humidity;BME280_pressure;Samples;Min_cycle;Max_cycle;Signal;HPM_P1;HPM_P2
2023/06/29 00:01:22;;;;;;;50.15;28.88;;;18.80;99.90;;;;;;4972513;28;20081;-78
2023/06/29 00:04:09;;;;;;;46.35;28.35;;;18.70;99.90;;;;;;4989664;28;20050;-78
2023/06/29 00:06:55;;;;;;;49.22;27.63;;;18.70;99.90;;;;;;4989768;28;20057;-76
2023/06/29 00:09:41;;;;;;;48.17;28.75;;;18.70;99.90;;;;;;4990517;28;20065;-78
2023/06/29 00:12:28;;;;;;;48.85;29.75;;;18.80;99.90;;;;;;4990784;28;20052;-80
2023/06/29 00:15:14;;;;;;;43.47;27.63;;;18.70;99.90;;;;;;4989051;28;20556;-77
2023/06/29 00:18:00;;;;;;;48.05;28.45;;;18.70;99.90;;;;;;4994955;28;20085;-77
2023/06/29 00:20:47;;;;;;;43.85;26.65;;;18.70;99.90;;;;;;4995144;28;20043;-79
2023/06/29 00:23:34;;;;;;;48.20;29.83;;;18.70;99.90;;;;;;4977442;28;20860;-78
2023/06/29 00:26:20;;;;;;;50.03;28.92;;;18.70;99.90;;;;;;4994170;28;20594;-78
2023/06/29 00:29:06;;;;;;;59.03;31.30;;;18.70;99.90;;;;;;4992918;28;20569;-78
2023/06/29 00:31:52;;;;;;;51.28;31.50;;;18.70;99.90;;;;;;4980758;28;20052;-77
2023/06/29 00:34:39;;;;;;;44.85;27.77;;;18.70;99.90;;;;;;4993573;28;20414;-77
2023/06/29 00:37:25;;;;;;;50.85;31.08;;;18.60;99.90;;;;;;4992784;28;20462;-77
2023/06/29 00:40:12;;;;;;;52.22;31.52;;;18.60;99.90;;;;;;4995186;28;20062;-78
2023/06/29 00:42:58;;;;;;;56.47;31.63;;;18.60;99.90;;;;;;4976010;28;20046;-76
2023/06/29 00:45:44;;;;;;;49.75;31.88;;;18.50;99.90;;;;;;4994335;28;20058;-76
2023/06/29 00:48:31;;;;;;;49.92;30.88;;;18.50;99.90;;;;;;4977116;28;20138;-75
2023/06/29 00:51:17;;;;;;;48.00;31.80;;;18.50;99.90;;;;;;4975913;28;20054;-76
2023/06/29 00:54:03;;;;;;;48.85;30.88;;;18.50;99.90;;;;;;4992673;28;20046;-75
2023/06/29 00:56:50;;;;;;;39.00;27.35;;;18.50;99.90;;;;;;4993766;28;20050;-77
2023/06/29 00:59:36;;;;;;;51.00;31.45;;;18.60;99.90;;;;;;4992948;28;20053;-76
2023/06/29 01:02:22;;;;;;;51.55;31.63;;;18.50;99.90;;;;;;4993110;28;20065;-79
2023/06/29 01:05:10;;;;;;;48.97;29.95;;;18.60;99.90;;;;;;4975755;28;20054;-77
2023/06/29 01:08:04;;;;;;;52.40;31.50;;;18.50;99.90;;;;;;4992500;28;20062;-76
2023/06/29 01:10:51;;;;;;;49.13;30.67;;;18.60;99.90;;;;;;4992495;28;20054;-78
2023/06/29 01:13:39;;;;;;;50.03;30.85;;;18.60;99.90;;;;;;4974678;28;20054;-78
2023/06/29 01:16:26;;;;;;;59.42;33.22;;;18.50;99.90;;;;;;4984173;28;20133;-77
2023/06/29 01:19:18;;;;;;;51.42;33.75;;;18.50;99.90;;;;;;4993360;28;20077;-76
2023/06/29 01:22:17;;;;;;;52.78;33.05;;;18.50;99.90;;;;;;4992499;28;20082;-76
2023/06/29 01:25:04;;;;;;;55.60;32.38;;;18.50;99.90;;;;;;4992876;28;20093;-78
2023/06/29 01:27:50;;;;;;;53.30;33.90;;;18.50;99.90;;;;;;4991626;28;20053;-76
2023/06/29 01:30:49;;;;;;;61.47;32.45;;;18.50;99.90;;;;;;4992857;28;20058;-78
2023/06/29 01:33:35;;;;;;;51.33;31.83;;;18.50;99.90;;;;;;4994122;28;20144;-77
2023/06/29 01:36:37;;;;;;;58.00;34.72;;;18.50;99.90;;;;;;4991701;28;20050;-76
2023/06/29 01:39:26;;;;;;;49.30;31.05;;;18.50;99.90;;;;;;4977227;28;20069;-75
2023/06/29 01:42:13;;;;;;;58.17;33.65;;;18.50;99.90;;;;;;4991363;28;20081;-76
2023/06/29 01:45:02;;;;;;;62.00;36.35;;;18.50;99.90;;;;;;4991965;28;20521;-76
2023/06/29 01:47:49;;;;;;;58.47;34.75;;;18.60;99.90;;;;;;4991128;28;20079;-77
2023/06/29 01:50:35;;;;;;;54.40;33.15;;;18.50;99.90;;;;;;4991993;28;20058;-76
2023/06/29 01:53:21;;;;;;;63.70;36.53;;;18.50;99.90;;;;;;4978201;28;20046;-76
2023/06/29 01:56:07;;;;;;;62.00;36.67;;;18.60;99.90;;;;;;4975521;28;20046;-76
2023/06/29 01:58:54;;;;;;;67.80;37.90;;;18.60;99.90;;;;;;4976373;28;20054;-76
2023/06/29 02:01:40;;;;;;;63.22;35.92;;;18.60;99.90;;;;;;4991808;28;20271;-76
2023/06/29 02:04:26;;;;;;;57.28;35.13;;;18.60;99.90;;;;;;4973675;28;20058;-75
2023/06/29 02:07:12;;;;;;;57.38;33.22;;;18.60;99.90;;;;;;4973446;28;20054;-78
2023/06/29 02:09:59;;;;;;;67.65;38.38;;;18.60;99.90;;;;;;4992634;28;20141;-77
2023/06/29 02:12:45;;;;;;;62.63;37.50;;;18.60;99.90;;;;;;4974753;28;20062;-79
2023/06/29 02:15:31;;;;;;;52.85;35.03;;;18.60;99.90;;;;;;4960183;28;20062;-77
2023/06/29 02:18:17;;;;;;;57.40;35.28;;;18.60;99.90;;;;;;4991719;28;20404;-76
2023/06/29 02:21:03;;;;;;;61.92;34.20;;;18.60;99.90;;;;;;4974905;28;20057;-77
2023/06/29 02:23:49;;;;;;;58.72;35.38;;;18.60;99.90;;;;;;4976390;28;20431;-77
2023/06/29 02:26:35;;;;;;;58.40;35.25;;;18.60;99.90;;;;;;4992681;28;20053;-78
2023/06/29 02:29:21;;;;;;;58.83;34.67;;;18.60;99.90;;;;;;4974688;28;20161;-76
2023/06/29 02:32:07;;;;;;;57.63;36.50;;;18.60;99.90;;;;;;4991912;28;20046;-80
2023/06/29 02:34:53;;;;;;;57.97;34.47;;;18.50;99.90;;;;;;4975125;28;20109;-80
2023/06/29 02:37:39;;;;;;;55.40;33.35;;;18.60;99.90;;;;;;4991198;28;20101;-79
2023/06/29 02:40:25;;;;;;;56.10;32.40;;;18.60;99.90;;;;;;4992216;28;20046;-77
2023/06/29 02:43:12;;;;;;;58.58;33.90;;;18.60;99.90;;;;;;4991263;28;20101;-77
2023/06/29 02:45:58;;;;;;;65.30;36.17;;;18.60;99.90;;;;;;4973509;28;20141;-80
2023/06/29 02:48:44;;;;;;;64.70;35.75;;;18.50;99.90;;;;;;4992505;28;20058;-75
2023/06/29 02:51:30;;;;;;;56.97;34.65;;;18.50;99.90;;;;;;4989396;28;20054;-80
2023/06/29 02:54:16;;;;;;;56.80;35.25;;;18.50;99.90;;;;;;4991349;28;20074;-81
2023/06/29 02:57:02;;;;;;;56.75;33.30;;;18.60;99.90;;;;;;4991500;28;20433;-76
2023/06/29 02:59:48;;;;;;;56.05;35.13;;;18.60;99.90;;;;;;4990378;28;20557;-76
2023/06/29 03:02:35;;;;;;;61.00;34.17;;;18.50;99.90;;;;;;4990746;28;20058;-76
2023/06/29 03:05:21;;;;;;;62.15;33.92;;;18.50;99.90;;;;;;4990833;28;20092;-76
2023/06/29 03:08:07;;;;;;;64.53;35.45;;;18.50;99.90;;;;;;4960529;28;20206;-76
2023/06/29 03:10:53;;;;;;;61.13;34.47;;;18.50;99.90;;;;;;4973334;28;20058;-77
2023/06/29 03:13:39;;;;;;;63.70;37.17;;;18.50;99.90;;;;;;4972718;28;20058;-77
2023/06/29 03:16:25;;;;;;;60.15;35.53;;;18.50;99.90;;;;;;4990769;28;20136;-79
2023/06/29 03:19:11;;;;;;;63.05;35.65;;;18.50;99.90;;;;;;4972299;28;20201;-80
2023/06/29 03:21:58;;;;;;;61.25;35.15;;;18.50;99.90;;;;;;4990837;28;20113;-80
2023/06/29 03:24:44;;;;;;;68.57;36.80;;;18.50;99.90;;;;;;4991494;28;20210;-80
2023/06/29 03:27:31;;;;;;;59.88;36.00;;;18.50;99.90;;;;;;4976060;28;20050;-76
2023/06/29 03:30:17;;;;;;;61.60;34.92;;;18.50;99.90;;;;;;4972877;28;20105;-79
2023/06/29 03:33:04;;;;;;;64.10;35.95;;;18.50;99.90;;;;;;4992110;28;20066;-76
2023/06/29 03:35:50;;;;;;;60.58;33.97;;;18.50;99.90;;;;;;4991192;28;20050;-76
2023/06/29 03:38:36;;;;;;;61.92;34.20;;;18.50;99.90;;;;;;4991233;28;20057;-76
2023/06/29 03:41:22;;;;;;;53.42;35.13;;;18.60;99.90;;;;;;4990992;28;20137;-76
2023/06/29 03:44:08;;;;;;;60.30;34.60;;;18.60;99.90;;;;;;4991070;28;20053;-78
2023/06/29 03:46:54;;;;;;;54.47;33.80;;;18.60;99.90;;;;;;4973334;28;20057;-76
2023/06/29 03:49:40;;;;;;;57.05;34.05;;;18.60;99.90;;;;;;4992236;28;20043;-76
2023/06/29 03:52:26;;;;;;;57.38;33.28;;;18.60;99.90;;;;;;4978113;28;20491;-79
2023/06/29 03:55:12;;;;;;;65.80;34.90;;;18.60;99.90;;;;;;4977406;28;20054;-78
2023/06/29 03:57:59;;;;;;;58.08;33.08;;;18.70;99.90;;;;;;4977490;28;20085;-76
2023/06/29 04:00:45;;;;;;;54.67;32.13;;;18.60;99.90;;;;;;4993922;28;20062;-76
2023/06/29 04:03:31;;;;;;;59.97;32.53;;;18.70;99.90;;;;;;4995637;28;20487;-77
2023/06/29 04:06:17;;;;;;;57.88;32.33;;;18.60;99.90;;;;;;4993435;28;20046;-78
2023/06/29 04:09:04;;;;;;;50.10;30.85;;;18.70;99.90;;;;;;4994677;28;20053;-77
2023/06/29 04:11:50;;;;;;;55.88;31.45;;;18.70;99.90;;;;;;4996005;28;20046;-77
2023/06/29 04:14:36;;;;;;;46.35;29.52;;;18.70;99.90;;;;;;4994740;28;20054;-76
2023/06/29 04:17:22;;;;;;;61.22;34.90;;;18.70;99.90;;;;;;4975761;28;20066;-76
2023/06/29 04:20:09;;;;;;;55.10;31.92;;;18.70;99.90;;;;;;4994512;28;20054;-77
2023/06/29 04:22:55;;;;;;;45.53;29.90;;;18.70;99.90;;;;;;4993480;28;20043;-76
2023/06/29 04:25:42;;;;;;;54.10;31.42;;;18.80;99.90;;;;;;4995365;28;20057;-76
2023/06/29 04:28:28;;;;;;;54.00;29.70;;;18.80;99.90;;;;;;4992416;28;20054;-77
2023/06/29 04:31:14;;;;;;;46.45;27.73;;;18.80;99.90;;;;;;4992725;28;20077;-77
2023/06/29 04:34:02;;;;;;;48.60;29.55;;;18.80;99.90;;;;;;4994120;28;20569;-77
2023/06/29 04:36:48;;;;;;;49.22;30.15;;;18.80;99.90;;;;;;4994037;28;20146;-78
2023/06/29 04:39:34;;;;;;;45.80;29.13;;;18.80;99.90;;;;;;4993891;28;20491;-75
2023/06/29 04:42:25;;;;;;;48.22;28.75;;;18.90;99.90;;;;;;4975969;28;20457;-75
2023/06/29 04:45:17;;;;;;;48.33;27.85;;;18.90;99.90;;;;;;4975764;28;20085;-75
2023/06/29 04:48:03;;;;;;;54.03;30.73;;;19.00;99.90;;;;;;4977423;28;20054;-75
2023/06/29 04:50:49;;;;;;;47.10;28.52;;;19.00;99.90;;;;;;4993218;28;20395;-76
2023/06/29 04:53:36;;;;;;;48.50;30.35;;;19.10;99.90;;;;;;4976689;28;20051;-79
2023/06/29 04:56:22;;;;;;;44.30;28.23;;;19.10;99.90;;;;;;4992158;28;20111;-75
2023/06/29 04:59:08;;;;;;;48.00;28.60;;;19.10;99.90;;;;;;4993297;28;20047;-75
2023/06/29 05:01:54;;;;;;;50.50;28.38;;;19.20;99.90;;;;;;4991462;28;20064;-76
2023/06/29 05:04:40;;;;;;;49.45;28.10;;;19.30;99.90;;;;;;4974491;28;20060;-76
2023/06/29 05:07:26;;;;;;;44.00;27.42;;;19.30;99.90;;;;;;4993081;28;20519;-76
2023/06/29 05:10:13;;;;;;;49.20;27.58;;;19.40;99.90;;;;;;4962204;28;20108;-76
2023/06/29 05:12:59;;;;;;;44.25;25.65;;;19.40;99.90;;;;;;4993365;28;20518;-76
2023/06/29 05:15:47;;;;;;;44.33;27.50;;;19.50;99.90;;;;;;4975459;28;20109;-77
2023/06/29 05:18:36;;;;;;;46.60;26.15;;;19.60;99.90;;;;;;4978905;28;20042;-76
2023/06/29 05:21:22;;;;;;;42.78;27.08;;;19.60;99.90;;;;;;4991654;28;20746;-77
2023/06/29 05:24:08;;;;;;;44.53;26.00;;;19.60;99.90;;;;;;4993347;28;20057;-76
2023/06/29 05:26:55;;;;;;;48.70;27.13;;;19.50;99.90;;;;;;4976344;28;20050;-76
2023/06/29 05:29:41;;;;;;;43.00;25.08;;;19.50;99.90;;;;;;4991517;28;20380;-77
2023/06/29 05:32:27;;;;;;;39.00;25.40;;;19.50;99.90;;;;;;4985850;28;20109;-78
2023/06/29 05:35:13;;;;;;;42.70;26.20;;;19.50;99.90;;;;;;4992771;28;20134;-78
2023/06/29 05:37:59;;;;;;;39.80;23.45;;;19.50;99.90;;;;;;4993086;28;20051;-77
2023/06/29 05:40:46;;;;;;;39.03;25.33;;;19.60;99.90;;;;;;4991301;28;20077;-76
2023/06/29 05:43:32;;;;;;;38.08;25.65;;;19.50;99.90;;;;;;4991371;28;20104;-78
2023/06/29 05:46:18;;;;;;;43.70;24.58;;;19.60;99.90;;;;;;4991635;28;20047;-75
2023/06/29 05:49:04;;;;;;;45.13;26.42;;;19.60;99.90;;;;;;4993160;28;20065;-76
2023/06/29 05:51:51;;;;;;;40.28;24.55;;;19.60;99.90;;;;;;4993108;28;20081;-74
2023/06/29 05:54:38;;;;;;;45.45;25.55;;;19.50;99.90;;;;;;4993301;28;20054;-75
2023/06/29 05:57:24;;;;;;;42.45;26.58;;;19.50;99.90;;;;;;4991521;28;20773;-75
2023/06/29 06:00:12;;;;;;;42.50;25.35;;;19.50;99.90;;;;;;4974527;28;20495;-74
2023/06/29 06:02:59;;;;;;;39.10;25.77;;;19.50;99.90;;;;;;4990636;28;20047;-75
2023/06/29 06:05:45;;;;;;;42.50;25.33;;;19.50;99.90;;;;;;4990535;28;20058;-74
2023/06/29 06:08:32;;;;;;;41.42;25.00;;;19.40;99.90;;;;;;4992717;28;20137;-74
2023/06/29 06:11:18;;;;;;;43.05;25.88;;;19.50;99.90;;;;;;4991186;28;20055;-75
2023/06/29 06:14:04;;;;;;;45.38;24.33;;;19.40;99.90;;;;;;4990678;28;20042;-74
2023/06/29 06:16:50;;;;;;;45.17;24.63;;;19.50;99.90;;;;;;4990928;28;20470;-75
2023/06/29 06:19:37;;;;;;;45.45;26.33;;;19.50;99.90;;;;;;4972989;28;20107;-76
2023/06/29 06:22:23;;;;;;;44.65;24.38;;;19.50;99.90;;;;;;4990341;28;20053;-74
2023/06/29 06:25:09;;;;;;;38.28;23.83;;;19.60;99.90;;;;;;4990663;28;20057;-75
2023/06/29 06:27:55;;;;;;;38.50;22.42;;;19.60;99.90;;;;;;4974893;28;20144;-74
2023/06/29 06:30:41;;;;;;;39.40;23.90;;;19.60;99.90;;;;;;4992087;28;20057;-74
2023/06/29 06:33:30;;;;;;;34.28;22.85;;;19.60;99.90;;;;;;4992160;28;20410;-76
2023/06/29 06:36:16;;;;;;;40.38;23.77;;;19.60;99.90;;;;;;4974740;28;20069;-75
2023/06/29 06:39:05;;;;;;;40.58;23.85;;;19.60;99.90;;;;;;4973964;28;20089;-75
2023/06/29 06:41:51;;;;;;;36.63;21.42;;;19.60;99.90;;;;;;4991712;28;20053;-76
2023/06/29 06:44:52;;;;;;;39.50;22.60;;;19.70;99.90;;;;;;4960798;28;20471;-75
2023/06/29 06:47:38;;;;;;;35.83;23.42;;;19.70;99.90;;;;;;4991036;28;20046;-74
2023/06/29 06:50:24;;;;;;;33.80;20.67;;;19.70;99.90;;;;;;4991379;28;20046;-76
2023/06/29 06:53:11;;;;;;;34.33;23.08;;;19.80;99.90;;;;;;4991312;28;20092;-76
2023/06/29 06:55:57;;;;;;;33.72;21.08;;;19.80;99.90;;;;;;4973298;28;20733;-76
2023/06/29 06:58:46;;;;;;;36.47;22.70;;;19.80;99.90;;;;;;4973753;28;20113;-76
2023/06/29 07:01:32;;;;;;;36.70;21.42;;;19.90;99.90;;;;;;4989939;28;20134;-76
2023/06/29 07:04:18;;;;;;;37.53;21.92;;;19.80;99.90;;;;;;4989966;28;20116;-76
2023/06/29 07:07:06;;;;;;;34.15;21.50;;;19.90;99.90;;;;;;4973123;28;20054;-77
2023/06/29 07:09:52;;;;;;;34.17;19.73;;;19.90;99.90;;;;;;4990181;28;20071;-76
2023/06/29 07:12:38;;;;;;;37.67;20.92;;;19.80;99.90;;;;;;4992170;28;20129;-75
2023/06/29 07:15:24;;;;;;;36.75;22.00;;;19.90;99.90;;;;;;4977062;28;20506;-76
2023/06/29 07:18:11;;;;;;;33.05;19.98;;;20.00;99.90;;;;;;4990791;28;20046;-77
2023/06/29 07:20:57;;;;;;;35.28;21.08;;;20.10;99.90;;;;;;4990944;28;20050;-74
2023/06/29 07:23:43;;;;;;;34.70;20.65;;;20.10;99.90;;;;;;4973986;28;20090;-75
2023/06/29 07:26:29;;;;;;;37.80;21.45;;;20.10;99.90;;;;;;4990731;28;20057;-76
2023/06/29 07:29:15;;;;;;;32.67;20.15;;;20.20;99.90;;;;;;4989954;28;20062;-76
2023/06/29 07:32:02;;;;;;;34.58;20.42;;;20.30;99.90;;;;;;4975597;28;20578;-76
2023/06/29 07:34:48;;;;;;;36.13;20.02;;;20.30;99.90;;;;;;4990669;28;20057;-75
2023/06/29 07:37:34;;;;;;;33.58;20.83;;;20.30;99.90;;;;;;4976672;28;20148;-79
2023/06/29 07:40:21;;;;;;;35.10;20.48;;;20.40;99.90;;;;;;4976135;28;20050;-75
2023/06/29 07:43:08;;;;;;;36.17;20.27;;;20.40;99.90;;;;;;4989523;28;20053;-79
2023/06/29 07:45:54;;;;;;;35.28;21.48;;;20.30;99.90;;;;;;4973173;28;20054;-76
2023/06/29 07:48:40;;;;;;;33.22;21.42;;;20.30;99.90;;;;;;4989833;28;20054;-77
2023/06/29 07:51:32;;;;;;;38.03;21.60;;;20.40;99.90;;;;;;4990276;28;20058;-76
2023/06/29 07:54:18;;;;;;;29.60;18.63;;;20.40;99.90;;;;;;4990647;28;20050;-75
2023/06/29 07:57:05;;;;;;;38.13;21.08;;;20.40;99.90;;;;;;4974041;28;20108;-76
2023/06/29 07:59:51;;;;;;;41.90;22.02;;;20.40;99.90;;;;;;4990409;28;20065;-75
2023/06/29 08:02:37;;;;;;;36.85;21.63;;;20.40;99.90;;;;;;4990327;28;20058;-76
2023/06/29 08:05:23;;;;;;;36.92;22.50;;;20.40;99.90;;;;;;4973113;28;20051;-76
2023/06/29 08:08:10;;;;;;;43.75;23.02;;;20.40;99.90;;;;;;4990386;28;20046;-75
2023/06/29 08:10:58;;;;;;;37.10;21.77;;;20.40;99.90;;;;;;4990541;28;20046;-75
2023/06/29 08:13:45;;;;;;;34.15;20.65;;;20.40;99.90;;;;;;4989565;28;20392;-75
2023/06/29 08:16:31;;;;;;;39.03;23.00;;;20.50;99.90;;;;;;4988385;28;20046;-76
2023/06/29 08:19:17;;;;;;;37.05;23.10;;;20.50;99.90;;;;;;4989255;28;20054;-75
2023/06/29 08:22:03;;;;;;;39.97;22.75;;;20.50;99.90;;;;;;4991217;28;20047;-75
2023/06/29 08:24:51;;;;;;;36.58;22.02;;;20.60;99.90;;;;;;4990298;28;20042;-76
2023/06/29 08:27:37;;;;;;;38.10;23.45;;;20.70;99.90;;;;;;4990734;28;20477;-78
2023/06/29 08:30:23;;;;;;;40.53;24.13;;;20.70;99.90;;;;;;4989985;28;20495;-77
2023/06/29 08:33:09;;;;;;;37.67;22.38;;;20.70;99.90;;;;;;4990899;28;20054;-75
2023/06/29 08:35:55;;;;;;;45.20;24.60;;;20.70;99.90;;;;;;4990712;28;20053;-75
2023/06/29 08:38:46;;;;;;;42.92;23.73;;;20.70;99.90;;;;;;4975562;28;20058;-78
2023/06/29 08:41:32;;;;;;;39.88;23.70;;;20.70;99.90;;;;;;4994114;28;20050;-76
2023/06/29 08:44:18;;;;;;;47.13;27.30;;;20.80;99.90;;;;;;4993938;28;20060;-79
2023/06/29 08:47:05;;;;;;;45.90;25.17;;;20.80;99.90;;;;;;4994072;28;20137;-75
2023/06/29 08:49:56;;;;;;;44.00;24.70;;;20.70;99.90;;;;;;4992883;28;20057;-78
2023/06/29 08:52:43;;;;;;;44.78;24.85;;;20.70;99.90;;;;;;4975895;28;20610;-76
2023/06/29 08:55:29;;;;;;;42.63;24.08;;;20.70;99.90;;;;;;4962361;28;20113;-75
2023/06/29 08:58:16;;;;;;;52.47;25.98;;;20.80;99.90;;;;;;4976823;28;20108;-75
2023/06/29 09:01:03;;;;;;;40.60;25.98;;;20.70;99.90;;;;;;4993331;28;20054;-75
2023/06/29 09:03:50;;;;;;;48.97;28.85;;;20.70;99.90;;;;;;4992628;28;20152;-76
2023/06/29 09:06:37;;;;;;;45.33;27.77;;;20.80;99.90;;;;;;4991448;28;20502;-75
2023/06/29 09:09:23;;;;;;;81.88;33.13;;;20.80;99.90;;;;;;4994590;28;20050;-76
2023/06/29 09:12:10;;;;;;;216.00;63.40;;;20.90;99.90;;;;;;4992039;28;20581;-75
2023/06/29 09:14:58;;;;;;;52.05;29.35;;;20.90;99.90;;;;;;4994491;28;20046;-76
2023/06/29 09:17:45;;;;;;;46.50;27.42;;;20.90;99.90;;;;;;4992629;28;20573;-77
2023/06/29 09:20:36;;;;;;;45.95;26.23;;;20.90;99.90;;;;;;4994088;28;20108;-76
2023/06/29 09:23:25;;;;;;;42.22;25.88;;;20.90;99.90;;;;;;4992377;28;20058;-77
2023/06/29 09:26:11;;;;;;;44.13;26.98;;;20.90;99.90;;;;;;4992401;28;20042;-79
2023/06/29 09:29:03;;;;;;;46.03;28.98;;;20.90;99.90;;;;;;4978410;28;20145;-80
2023/06/29 09:31:59;;;;;;;52.15;28.90;;;21.00;99.90;;;;;;4992686;28;20582;-76
2023/06/29 09:34:47;;;;;;;52.58;28.23;;;21.00;99.90;;;;;;4992729;28;20086;-79
2023/06/29 09:37:35;;;;;;;46.00;26.20;;;21.00;99.90;;;;;;4992932;28;20396;-76
2023/06/29 09:40:21;;;;;;;59.70;31.00;;;21.00;99.90;;;;;;4974448;28;20137;-78
2023/06/29 09:43:15;;;;;;;43.20;26.40;;;21.00;99.90;;;;;;4993123;28;20061;-77
2023/06/29 09:46:08;;;;;;;37.90;25.03;;;21.00;99.90;;;;;;4992334;28;20046;-77
2023/06/29 09:48:54;;;;;;;42.50;26.27;;;21.00;99.90;;;;;;4974043;28;20054;-76
2023/06/29 09:51:41;;;;;;;37.85;25.50;;;21.00;99.90;;;;;;4992202;28;20443;-76
2023/06/29 09:54:28;;;;;;;35.83;24.73;;;21.00;99.90;;;;;;4992479;28;20046;-75
2023/06/29 09:57:14;;;;;;;36.25;23.10;;;21.00;99.90;;;;;;4975418;28;20046;-76
2023/06/29 10:00:01;;;;;;;40.50;22.80;;;20.80;99.90;;;;;;4990855;28;20089;-75
2023/06/29 10:02:47;;;;;;;37.78;23.02;;;20.60;99.90;;;;;;4993781;28;20058;-76
2023/06/29 10:05:34;;;;;;;37.78;23.85;;;20.50;99.90;;;;;;4974461;28;20054;-76
2023/06/29 10:08:22;;;;;;;40.65;24.70;;;20.30;99.90;;;;;;4990361;28;20047;-75
2023/06/29 10:11:08;;;;;;;39.95;25.10;;;20.20;99.90;;;;;;4991594;28;20119;-76
2023/06/29 10:14:02;;;;;;;44.38;27.48;;;20.00;99.90;;;;;;4992699;28;20445;-75
2023/06/29 10:16:52;;;;;;;50.25;29.60;;;20.00;99.90;;;;;;4974069;28;20510;-75
2023/06/29 10:19:41;;;;;;;45.80;28.02;;;19.90;99.90;;;;;;4960556;28;20058;-78
2023/06/29 10:22:29;;;;;;;45.88;27.85;;;19.90;99.90;;;;;;4990928;28;20050;-75
2023/06/29 10:25:20;;;;;;;49.63;29.48;;;19.80;99.90;;;;;;4973150;28;20498;-76
2023/06/29 10:28:08;;;;;;;41.80;26.52;;;19.80;99.90;;;;;;4974332;28;20085;-76
2023/06/29 10:30:59;;;;;;;37.70;23.75;;;19.80;99.90;;;;;;4990724;28;20073;-75
2023/06/29 10:33:47;;;;;;;43.92;27.13;;;20.00;99.90;;;;;;4990994;28;20137;-76
2023/06/29 10:36:49;;;;;;;42.95;25.70;;;20.10;99.90;;;;;;4990529;28;20502;-74
2023/06/29 10:39:41;;;;;;;43.33;27.70;;;20.10;99.90;;;;;;4990831;28;20088;-75
2023/06/29 10:42:28;;;;;;;42.30;26.75;;;20.10;99.90;;;;;;4978609;28;20090;-76
2023/06/29 10:45:20;;;;;;;39.45;25.95;;;20.20;99.90;;;;;;4975962;28;20132;-76
2023/06/29 10:48:09;;;;;;;38.15;23.85;;;20.20;99.90;;;;;;4975530;28;20165;-77
2023/06/29 10:50:55;;;;;;;38.72;25.20;;;20.10;99.90;;;;;;4990302;28;20137;-76
2023/06/29 10:53:41;;;;;;;37.00;23.42;;;20.20;99.90;;;;;;4991685;28;20050;-74
2023/06/29 10:56:30;;;;;;;40.90;25.52;;;20.20;99.90;;;;;;4983131;28;20524;-73
2023/06/29 10:59:17;;;;;;;38.30;25.45;;;20.20;99.90;;;;;;4973651;28;20486;-74
2023/06/29 11:02:03;;;;;;;43.00;26.88;;;20.20;99.90;;;;;;4991822;28;20097;-75
2023/06/29 11:04:50;;;;;;;39.13;25.20;;;20.20;99.90;;;;;;4990983;28;20104;-74
2023/06/29 11:07:37;;;;;;;44.35;27.98;;;20.30;99.90;;;;;;4975041;28;20050;-74
2023/06/29 11:10:23;;;;;;;42.97;27.10;;;20.40;99.90;;;;;;4990363;28;20093;-75
2023/06/29 11:13:09;;;;;;;44.17;29.33;;;20.50;99.90;;;;;;4974163;28;20093;-74
2023/06/29 11:15:56;;;;;;;42.72;27.75;;;20.50;99.90;;;;;;4991538;28;20065;-74
2023/06/29 11:18:49;;;;;;;44.10;27.40;;;20.60;99.90;;;;;;4990945;28;20046;-74
2023/06/29 11:21:37;;;;;;;45.53;29.47;;;20.60;99.90;;;;;;4960566;28;20078;-78
2023/06/29 11:24:23;;;;;;;49.33;30.52;;;20.70;99.90;;;;;;4972465;28;20050;-76
2023/06/29 11:27:10;;;;;;;43.28;28.98;;;20.70;99.90;;;;;;4990629;28;20050;-76
2023/06/29 11:29:56;;;;;;;49.85;29.88;;;20.70;99.90;;;;;;4992588;28;20061;-76
2023/06/29 11:32:42;;;;;;;96.35;43.35;;;20.80;99.90;;;;;;4973534;28;20050;-80
2023/06/29 11:35:31;;;;;;;53.20;32.70;;;20.90;99.90;;;;;;4991166;28;20057;-78
2023/06/29 11:38:18;;;;;;;48.55;32.30;;;20.90;99.90;;;;;;4990249;28;20053;-80
2023/06/29 11:41:05;;;;;;;47.22;28.58;;;21.00;99.90;;;;;;4990423;28;20093;-76
2023/06/29 11:43:51;;;;;;;47.08;31.52;;;21.10;99.90;;;;;;4976607;28;20073;-76
2023/06/29 11:46:39;;;;;;;53.60;33.17;;;21.20;99.90;;;;;;4991024;28;20050;-75
2023/06/29 11:49:25;;;;;;;51.03;31.88;;;21.20;99.90;;;;;;4973154;28;20054;-76
2023/06/29 11:52:12;;;;;;;55.58;32.38;;;21.30;99.90;;;;;;4989075;28;20105;-75
2023/06/29 11:55:02;;;;;;;58.40;32.85;;;21.40;99.90;;;;;;4989328;28;20415;-74
2023/06/29 11:57:53;;;;;;;49.92;32.72;;;21.40;99.90;;;;;;4991372;28;20050;-75
2023/06/29 12:00:39;;;;;;;51.25;32.63;;;21.50;99.90;;;;;;4971181;28;20502;-75
2023/06/29 12:03:26;;;;;;;46.72;31.13;;;21.70;99.90;;;;;;4972923;28;20058;-76
2023/06/29 12:06:12;;;;;;;53.97;34.45;;;21.70;99.90;;;;;;4990548;28;20209;-75
2023/06/29 12:08:58;;;;;;;52.97;31.27;;;21.80;99.90;;;;;;4989725;28;20406;-77
2023/06/29 12:11:45;;;;;;;51.38;32.55;;;21.90;99.90;;;;;;4974123;28;20065;-78
2023/06/29 12:14:34;;;;;;;51.47;32.00;;;21.70;99.90;;;;;;4977046;28;20090;-78
2023/06/29 12:17:21;;;;;;;49.25;31.75;;;21.80;99.90;;;;;;4994405;28;20053;-78
2023/06/29 12:20:20;;;;;;;48.78;30.52;;;21.80;99.90;;;;;;4963228;28;20058;-77
2023/06/29 12:23:07;;;;;;;52.17;31.52;;;21.70;99.90;;;;;;4963210;28;20330;-76
2023/06/29 12:25:53;;;;;;;52.97;32.88;;;21.90;99.90;;;;;;4994374;28;20137;-79
2023/06/29 12:28:39;;;;;;;52.58;31.05;;;21.90;99.90;;;;;;4975956;28;20050;-80
2023/06/29 12:31:28;;;;;;;48.63;31.17;;;22.00;99.90;;;;;;4962354;28;20057;-77
2023/06/29 12:34:14;;;;;;;49.75;32.20;;;22.20;99.90;;;;;;4994055;28;20403;-76
2023/06/29 12:37:02;;;;;;;50.30;29.58;;;22.40;99.90;;;;;;4977312;28;20113;-76
2023/06/29 12:39:48;;;;;;;50.95;30.85;;;22.40;99.90;;;;;;4991982;28;20054;-76
2023/06/29 12:42:36;;;;;;;52.03;32.40;;;22.70;99.90;;;;;;4994228;28;20054;-75
2023/06/29 12:45:23;;;;;;;47.47;31.23;;;23.10;99.90;;;;;;4994079;28;20054;-76
2023/06/29 12:48:09;;;;;;;42.08;25.70;;;23.40;99.90;;;;;;4994911;28;20065;-76
2023/06/29 12:50:59;;;;;;;41.55;25.08;;;23.40;99.90;;;;;;4993771;28;20106;-79
2023/06/29 12:53:45;;;;;;;47.60;25.70;;;23.30;99.90;;;;;;4992622;28;20514;-79
2023/06/29 12:56:31;;;;;;;50.88;28.08;;;23.00;99.90;;;;;;4993430;28;20046;-74
2023/06/29 12:59:17;;;;;;;50.53;28.80;;;22.70;99.90;;;;;;4993186;28;20491;-77
2023/06/29 13:02:07;;;;;;;48.92;29.20;;;22.40;99.90;;;;;;4993087;28;20085;-79
2023/06/29 13:04:53;;;;;;;53.58;29.75;;;22.10;99.90;;;;;;4992773;28;20057;-79
2023/06/29 13:07:40;;;;;;;59.38;30.63;;;22.10;99.90;;;;;;4993466;28;20429;-77
2023/06/29 13:10:26;;;;;;;53.92;30.67;;;21.90;99.90;;;;;;4994215;28;20192;-81
2023/06/29 13:13:12;;;;;;;61.15;30.45;;;21.80;99.90;;;;;;4992712;28;20129;-80
2023/06/29 13:15:58;;;;;;;59.83;31.75;;;21.90;99.90;;;;;;4993684;28;20046;-81
2023/06/29 13:18:44;;;;;;;60.55;30.67;;;21.80;99.90;;;;;;4963451;28;20126;-80
2023/06/29 13:21:30;;;;;;;53.28;30.00;;;21.70;99.90;;;;;;4993695;28;20050;-80
2023/06/29 13:24:17;;;;;;;62.38;31.95;;;21.50;99.90;;;;;;4992243;28;20410;-80
2023/06/29 13:27:03;;;;;;;59.38;30.92;;;21.40;99.90;;;;;;4992370;28;20046;-79
2023/06/29 13:29:50;;;;;;;68.72;33.50;;;21.30;99.90;;;;;;4992291;28;20054;-78
2023/06/29 13:32:36;;;;;;;74.03;35.10;;;21.10;99.90;;;;;;4993738;28;20054;-79
2023/06/29 13:35:22;;;;;;;73.15;35.80;;;20.90;99.90;;;;;;4991876;28;20125;-79
2023/06/29 13:38:08;;;;;;;69.70;33.65;;;20.80;99.90;;;;;;4993830;28;20061;-80
2023/06/29 13:40:54;;;;;;;67.13;34.72;;;20.60;99.90;;;;;;4975739;28;20104;-76
2023/06/29 13:43:40;;;;;;;68.78;35.20;;;20.40;99.90;;;;;;4992821;28;20050;-79
2023/06/29 13:46:27;;;;;;;63.00;32.90;;;20.30;99.90;;;;;;4992423;28;20495;-77
2023/06/29 13:49:15;;;;;;;61.40;29.05;;;20.30;99.90;;;;;;4992282;28;20133;-75
2023/06/29 13:52:01;;;;;;;57.03;28.92;;;20.10;99.90;;;;;;4994044;28;20050;-79
2023/06/29 13:54:47;;;;;;;43.88;24.05;;;20.00;99.90;;;;;;4992708;28;20058;-79
2023/06/29 13:57:34;;;;;;;25.48;15.27;;;20.00;99.90;;;;;;4975340;28;20403;-75
2023/06/29 14:00:21;;;;;;;15.73;9.50;;;20.00;99.90;;;;;;4990562;28;20105;-77
2023/06/29 14:03:07;;;;;;;13.82;8.27;;;19.80;99.90;;;;;;4992265;28;20096;-79
2023/06/29 14:05:53;;;;;;;13.73;7.97;;;19.70;99.90;;;;;;4973490;28;20050;-75
2023/06/29 14:08:40;;;;;;;13.30;7.53;;;19.70;99.90;;;;;;4991284;28;20051;-76